Benton, Ohio
Current Conditions -  °F | °C
As of 7:53 PM on Saturday 22 Nov 2014 (Local Time) from KMNN Reporting Station
Overcast Overcast  
Wind Chill: 44°   Ceiling: 4400
Heat Index: 49°   Visibility: 10mi
Dew Point: 37°   Wind: 13mph
Humidity: 64%   Direction: 190°S
Pressure: 30.04"   Gusts: NA
Location:  40.948°N, 83.1346°W
Report Text: KMNN 230053Z AUTO 19011KT 10SM OVC044 09/03 A3004 RMK AO2 SLP181 T00940028 TSNO
Loading
Personal Weather Stations






























Interactive Weather Map New forecast layout! Learn more

10-Day Weather Forecast

Advertisements
Track Severe Weather on mobile